createdAt,value
2023-04-30T00:01:21.881Z,6.93
2023-04-30T00:04:26.464Z,6.07
2023-04-30T00:07:28.118Z,5.70
2023-04-30T00:10:29.977Z,5.97
2023-04-30T00:13:31.650Z,7.35
2023-04-30T00:16:33.428Z,6.45
2023-04-30T00:19:35.116Z,10.38
2023-04-30T00:22:36.739Z,9.15
2023-04-30T00:25:38.425Z,9.85
2023-04-30T00:28:40.232Z,8.20
2023-04-30T00:31:42.049Z,6.78
2023-04-30T00:34:43.708Z,8.27
2023-04-30T00:37:45.685Z,9.85
2023-04-30T00:40:47.401Z,7.97
2023-04-30T00:43:49.036Z,6.15
2023-04-30T00:46:50.593Z,11.45
2023-04-30T00:49:52.395Z,10.50
2023-04-30T00:52:54.304Z,8.65
2023-04-30T00:55:56.298Z,17.52
2023-04-30T00:58:58.003Z,5.05
2023-04-30T01:01:59.654Z,10.60
2023-04-30T01:05:05.270Z,12.40
2023-04-30T01:08:07.349Z,9.73
2023-04-30T01:11:30.940Z,10.38
2023-04-30T01:14:58.145Z,9.07
2023-04-30T01:18:19.763Z,6.32
2023-04-30T01:21:21.723Z,8.40
2023-04-30T01:24:47.648Z,7.93
2023-04-30T01:28:07.070Z,8.98
2023-04-30T01:31:21.851Z,6.60
2023-04-30T01:34:23.503Z,7.05
2023-04-30T01:37:44.467Z,5.75
2023-04-30T01:40:58.029Z,6.55
2023-04-30T01:44:21.308Z,8.93
2023-04-30T01:47:46.357Z,6.40
2023-04-30T01:50:50.038Z,7.40
2023-04-30T01:53:51.733Z,11.07
2023-04-30T01:57:04.602Z,7.03
2023-04-30T02:00:08.934Z,8.27
2023-04-30T02:03:10.654Z,8.38
2023-04-30T02:06:12.346Z,7.43
2023-04-30T02:09:13.966Z,14.90
2023-04-30T02:12:16.047Z,10.13
2023-04-30T02:15:17.775Z,12.00
2023-04-30T02:18:19.586Z,11.52
2023-04-30T02:21:21.308Z,15.55
2023-04-30T02:24:23.234Z,9.90
2023-04-30T02:27:26.161Z,11.73
2023-04-30T02:30:27.843Z,8.00
2023-04-30T02:33:32.752Z,7.15
2023-04-30T02:36:36.754Z,9.98
2023-04-30T02:39:38.360Z,6.22
2023-04-30T02:42:39.961Z,8.15
2023-04-30T02:45:41.667Z,5.53
2023-04-30T02:48:43.297Z,6.15
2023-04-30T02:51:44.886Z,4.97
2023-04-30T02:54:46.692Z,9.95
2023-04-30T02:57:48.596Z,7.32
2023-04-30T03:00:50.387Z,11.15
2023-04-30T03:03:52.112Z,5.80
2023-04-30T03:06:53.916Z,10.68
2023-04-30T03:09:55.921Z,6.43
2023-04-30T03:16:04.687Z,10.93
2023-04-30T03:19:06.465Z,6.68
2023-04-30T03:22:08.024Z,8.98
2023-04-30T03:25:10.614Z,7.88
2023-04-30T03:28:14.646Z,7.32
2023-04-30T03:31:16.374Z,6.63
2023-04-30T03:34:18.007Z,4.70
2023-04-30T03:37:19.562Z,5.28
2023-04-30T03:40:21.483Z,7.32
2023-04-30T03:43:23.109Z,9.82
2023-04-30T03:46:26.115Z,10.15
2023-04-30T03:49:27.834Z,6.57
2023-04-30T03:52:30.327Z,5.97
2023-04-30T03:55:32.572Z,9.93
2023-04-30T04:01:35.895Z,6.28
2023-04-30T04:04:37.699Z,8.32
2023-04-30T04:07:39.409Z,7.78
2023-04-30T04:10:41.150Z,9.60
2023-04-30T04:13:42.771Z,11.40
2023-04-30T04:16:44.770Z,9.18
2023-04-30T04:19:46.544Z,5.95
2023-04-30T04:22:48.145Z,6.47
2023-04-30T04:25:49.852Z,6.53
2023-04-30T04:28:52.081Z,7.65
2023-04-30T04:34:57.184Z,6.82
2023-04-30T04:37:59.168Z,6.18
2023-04-30T04:41:00.840Z,6.15
2023-04-30T04:44:03.602Z,5.05
2023-04-30T04:47:05.307Z,5.88
2023-04-30T04:50:07.965Z,7.68
2023-04-30T04:53:09.654Z,7.47
2023-04-30T04:56:11.329Z,9.00
2023-04-30T04:59:13.381Z,9.38
2023-04-30T05:02:15.066Z,8.70
2023-04-30T05:05:16.661Z,8.38
2023-04-30T05:08:18.708Z,9.73
2023-04-30T05:11:22.060Z,6.68
2023-04-30T05:14:23.728Z,5.82
2023-04-30T05:17:25.358Z,7.88
2023-04-30T05:20:29.433Z,6.55
2023-04-30T05:23:31.069Z,8.40
2023-04-30T05:26:32.864Z,7.97
2023-04-30T05:29:34.520Z,5.53
2023-04-30T05:32:36.176Z,5.30
2023-04-30T05:35:40.188Z,7.35
2023-04-30T05:38:42.055Z,6.18
2023-04-30T05:41:43.663Z,5.05
2023-04-30T05:44:45.239Z,11.32
2023-04-30T05:47:46.915Z,6.97
2023-04-30T05:50:48.527Z,6.72
2023-04-30T05:53:50.185Z,7.93
2023-04-30T05:56:51.967Z,7.13
2023-04-30T05:59:54.865Z,9.82
2023-04-30T06:02:56.964Z,12.25
2023-04-30T06:05:58.785Z,6.90
2023-04-30T06:09:00.419Z,7.32
2023-04-30T06:12:02.545Z,7.47
2023-04-30T06:18:05.833Z,8.48
2023-04-30T06:21:07.438Z,7.70
2023-04-30T06:24:09.409Z,6.38
2023-04-30T06:27:10.971Z,7.18
2023-04-30T06:30:15.957Z,8.60
2023-04-30T06:33:17.652Z,6.45
2023-04-30T06:36:19.788Z,6.90
2023-04-30T06:42:23.072Z,6.43
2023-04-30T06:45:24.772Z,5.80
2023-04-30T06:48:26.482Z,6.25
2023-04-30T06:51:28.046Z,6.47
2023-04-30T06:54:29.693Z,6.82
2023-04-30T06:57:32.018Z,6.10
2023-04-30T07:00:34.238Z,10.20
2023-04-30T07:06:37.947Z,5.23
2023-04-30T07:12:43.966Z,9.13
2023-04-30T07:15:51.373Z,6.60
2023-04-30T07:18:53.073Z,13.95
2023-04-30T07:21:54.778Z,8.60
2023-04-30T07:24:56.376Z,5.95
2023-04-30T07:27:58.021Z,5.57
2023-04-30T07:31:00.436Z,4.70
2023-04-30T07:34:02.256Z,6.35
2023-04-30T07:37:03.821Z,4.63
2023-04-30T07:40:06.593Z,5.38
2023-04-30T07:43:08.245Z,4.03
2023-04-30T07:46:09.936Z,4.30
2023-04-30T07:49:14.467Z,2.95
2023-04-30T07:52:16.210Z,7.18
2023-04-30T07:55:28.578Z,3.70
2023-04-30T07:58:33.494Z,2.90
2023-04-30T08:01:35.672Z,3.63
2023-04-30T08:04:37.543Z,3.88
2023-04-30T08:07:39.982Z,3.72
2023-04-30T08:10:42.083Z,4.55
2023-04-30T08:13:48.496Z,2.88
2023-04-30T08:16:50.345Z,4.72
2023-04-30T08:19:52.506Z,3.05
2023-04-30T08:22:54.520Z,4.20
2023-04-30T08:25:56.302Z,3.42
2023-04-30T08:29:00.146Z,3.40
2023-04-30T08:32:03.074Z,4.55
2023-04-30T08:35:05.472Z,4.53
2023-04-30T08:38:09.354Z,2.60
2023-04-30T08:41:14.640Z,3.03
2023-04-30T08:44:16.575Z,3.17
2023-04-30T08:47:18.562Z,3.13
2023-04-30T08:50:20.151Z,3.40
2023-04-30T08:53:22.092Z,3.60
2023-04-30T08:59:27.744Z,3.35
2023-04-30T09:06:14.224Z,7.63
2023-04-30T09:09:19.694Z,4.47
2023-04-30T09:12:23.848Z,4.20
2023-04-30T09:15:42.049Z,5.93
2023-04-30T09:18:43.843Z,3.88
2023-04-30T09:21:47.064Z,3.00
2023-04-30T09:25:00.212Z,5.40
2023-04-30T09:28:29.096Z,3.75
2023-04-30T09:31:30.833Z,4.25
2023-04-30T09:34:38.227Z,3.00
2023-04-30T09:37:40.129Z,3.35
2023-04-30T09:43:45.237Z,3.10
2023-04-30T09:46:47.262Z,2.95
2023-04-30T09:49:51.851Z,5.57
2023-04-30T09:52:53.908Z,3.00
2023-04-30T09:55:56.819Z,3.72
2023-04-30T09:59:00.066Z,4.15
2023-04-30T10:02:03.301Z,3.92
2023-04-30T10:05:05.227Z,4.40
2023-04-30T10:11:12.956Z,3.75
2023-04-30T10:14:15.204Z,2.70
2023-04-30T10:17:17.315Z,2.72
2023-04-30T10:20:18.918Z,4.55
2023-04-30T10:23:21.897Z,5.68
2023-04-30T10:26:24.734Z,3.17
2023-04-30T10:29:26.340Z,2.38
2023-04-30T10:32:34.689Z,3.55
2023-04-30T10:35:49.798Z,3.60
2023-04-30T10:38:51.483Z,2.78
2023-04-30T10:42:00.309Z,3.17
2023-04-30T10:45:03.825Z,3.17
2023-04-30T10:48:06.529Z,3.53
2023-04-30T10:51:08.307Z,4.20
2023-04-30T10:54:10.080Z,5.70
2023-04-30T10:57:15.148Z,3.47
2023-04-30T11:00:20.509Z,4.78
2023-04-30T11:03:22.077Z,3.45
2023-04-30T11:06:28.791Z,3.05
2023-04-30T11:09:43.825Z,5.22
2023-04-30T11:12:53.955Z,3.40
2023-04-30T11:16:00.987Z,4.68
2023-04-30T11:19:15.310Z,2.88
2023-04-30T11:22:27.069Z,3.53
2023-04-30T11:28:41.575Z,3.95
2023-04-30T11:32:17.641Z,3.78
2023-04-30T11:35:22.204Z,4.57
2023-04-30T11:38:33.381Z,3.05
2023-04-30T11:41:46.294Z,3.10
2023-04-30T11:45:28.273Z,3.95
2023-04-30T11:48:40.791Z,3.53
2023-04-30T11:51:49.951Z,4.90
2023-04-30T11:55:08.746Z,2.50
2023-04-30T11:58:39.371Z,2.60
2023-04-30T12:01:48.622Z,4.18
2023-04-30T12:04:59.414Z,3.40
2023-04-30T12:08:16.814Z,2.67
2023-04-30T12:11:30.041Z,3.50
2023-04-30T12:14:39.978Z,5.32
2023-04-30T12:17:44.156Z,2.83
2023-04-30T12:20:46.080Z,5.90
2023-04-30T12:24:04.257Z,5.18
2023-04-30T12:27:08.177Z,9.70
2023-04-30T12:30:21.202Z,4.05
2023-04-30T12:33:23.018Z,5.43
2023-04-30T12:39:40.646Z,6.05
2023-04-30T12:42:43.336Z,4.45
2023-04-30T12:45:58.205Z,5.28
2023-04-30T12:49:01.757Z,2.97
2023-04-30T12:52:07.553Z,6.32
2023-04-30T12:55:18.610Z,3.55
2023-04-30T12:58:47.207Z,3.20
2023-04-30T13:01:58.319Z,5.65
2023-04-30T13:05:00.150Z,4.70
2023-04-30T13:11:13.032Z,3.97
2023-04-30T13:14:14.764Z,3.30
2023-04-30T13:23:52.097Z,3.60
2023-04-30T13:26:57.805Z,3.38
2023-04-30T13:30:03.659Z,3.17
2023-04-30T13:33:11.067Z,2.80
2023-04-30T13:36:16.299Z,3.65
2023-04-30T13:39:25.886Z,3.90
2023-04-30T13:46:20.696Z,7.15
2023-04-30T13:53:10.244Z,3.72
2023-04-30T13:56:12.775Z,3.58
2023-04-30T14:05:05.798Z,3.03
2023-04-30T14:12:30.906Z,4.70
2023-04-30T14:15:33.242Z,3.15
2023-04-30T14:19:14.715Z,3.58
2023-04-30T14:22:06.731Z,2.70
2023-04-30T14:28:52.340Z,2.75
2023-04-30T14:31:53.949Z,4.78
2023-04-30T14:35:08.456Z,3.03
2023-04-30T14:38:10.210Z,3.60
2023-04-30T14:44:29.706Z,4.68
2023-04-30T14:51:17.386Z,3.38
2023-04-30T14:54:19.026Z,3.10
2023-04-30T14:57:21.913Z,2.67
2023-04-30T15:00:23.534Z,3.30
2023-04-30T15:03:25.492Z,3.85
2023-04-30T15:06:27.490Z,3.78
2023-04-30T15:09:50.586Z,4.35
2023-04-30T15:21:38.180Z,3.17
2023-04-30T15:24:39.872Z,3.88
2023-04-30T15:34:59.277Z,2.80
2023-04-30T15:43:10.201Z,3.13
2023-04-30T15:46:15.378Z,5.10
2023-04-30T15:52:48.450Z,2.63
2023-04-30T15:55:56.505Z,4.28
2023-04-30T15:58:59.313Z,3.20
2023-04-30T16:02:58.347Z,3.17
2023-04-30T16:06:01.140Z,4.63
2023-04-30T16:09:08.955Z,5.20
2023-04-30T16:12:11.206Z,2.90
2023-04-30T16:15:12.859Z,2.83
2023-04-30T16:18:21.594Z,3.28
2023-04-30T16:21:23.992Z,4.28
2023-04-30T16:24:28.473Z,4.35
2023-04-30T16:27:37.171Z,3.78
2023-04-30T16:30:39.169Z,3.78
2023-04-30T16:33:41.319Z,7.70
2023-04-30T16:36:46.265Z,4.07
2023-04-30T16:39:48.032Z,4.18
2023-04-30T16:42:50.270Z,4.60
2023-04-30T16:45:52.973Z,3.58
2023-04-30T16:48:56.037Z,4.93
2023-04-30T16:51:57.680Z,3.72
2023-04-30T16:54:59.459Z,3.17
2023-04-30T16:58:03.931Z,3.42
2023-04-30T17:01:21.641Z,3.90
2023-04-30T17:04:23.356Z,4.35
2023-04-30T17:07:25.691Z,4.38
2023-04-30T17:10:30.316Z,5.63
2023-04-30T17:13:34.743Z,6.85
2023-04-30T17:16:38.008Z,4.20
2023-04-30T17:19:39.906Z,7.72
2023-04-30T17:25:45.941Z,3.70
2023-04-30T17:31:53.614Z,3.40
2023-04-30T17:35:11.002Z,6.88
2023-04-30T17:38:15.890Z,3.22
2023-04-30T17:41:24.209Z,4.13
2023-04-30T17:44:30.981Z,4.88
2023-04-30T17:47:33.168Z,3.83
2023-04-30T17:50:34.983Z,4.15
2023-04-30T17:54:09.079Z,3.13
2023-04-30T17:57:07.668Z,4.22
2023-04-30T18:00:12.977Z,3.00
2023-04-30T18:03:14.822Z,3.17
2023-04-30T18:15:53.961Z,4.05
2023-04-30T18:18:58.618Z,4.75
2023-04-30T18:22:01.700Z,5.72
2023-04-30T18:25:11.376Z,6.68
2023-04-30T18:28:13.462Z,6.68
2023-04-30T18:31:15.322Z,6.05
2023-04-30T18:37:21.911Z,6.28
2023-04-30T18:40:26.614Z,6.93
2023-04-30T18:43:28.433Z,14.48
2023-04-30T18:46:31.601Z,9.43
2023-04-30T18:49:45.767Z,8.02
2023-04-30T18:52:47.573Z,5.15
2023-04-30T18:55:54.337Z,8.35
2023-04-30T18:58:55.967Z,4.35
2023-04-30T19:01:57.809Z,6.53
2023-04-30T19:04:59.671Z,7.05
2023-04-30T19:08:01.638Z,6.15
2023-04-30T19:14:09.529Z,8.37
2023-04-30T19:17:14.616Z,4.93
2023-04-30T19:20:19.292Z,7.07
2023-04-30T19:23:23.699Z,4.65
2023-04-30T19:26:26.071Z,8.55
2023-04-30T19:29:29.638Z,3.90
2023-04-30T19:32:31.714Z,4.13
2023-04-30T19:35:34.772Z,4.55
2023-04-30T19:38:36.619Z,6.30
2023-04-30T19:41:39.026Z,5.57
2023-04-30T19:44:42.958Z,6.68
2023-04-30T19:47:44.616Z,14.93
2023-04-30T19:50:47.079Z,12.35
2023-04-30T19:53:48.809Z,14.15
2023-04-30T19:56:53.159Z,11.95
2023-04-30T19:59:54.932Z,10.10
2023-04-30T20:02:58.764Z,5.60
2023-04-30T20:06:05.989Z,6.72
2023-04-30T20:09:07.848Z,10.00
2023-04-30T20:12:09.804Z,9.52
2023-04-30T20:15:11.544Z,11.95
2023-04-30T20:18:13.343Z,10.70
2023-04-30T20:21:15.163Z,10.07
2023-04-30T20:24:19.242Z,10.80
2023-04-30T20:27:20.907Z,15.43
2023-04-30T20:30:22.661Z,8.18
2023-04-30T20:33:25.927Z,5.20
2023-04-30T20:36:33.868Z,9.35
2023-04-30T20:39:35.515Z,6.05
2023-04-30T20:42:38.737Z,5.95
2023-04-30T20:45:42.498Z,6.13
2023-04-30T20:48:54.645Z,6.63
2023-04-30T20:51:56.225Z,8.13
2023-04-30T20:54:59.403Z,8.35
2023-04-30T20:58:01.955Z,13.77
2023-04-30T21:01:03.871Z,8.55
2023-04-30T21:04:05.606Z,6.95
2023-04-30T21:07:07.310Z,5.03
2023-04-30T21:10:12.402Z,7.28
2023-04-30T21:13:15.068Z,4.68
2023-04-30T21:16:16.738Z,6.07
2023-04-30T21:19:24.378Z,6.03
2023-04-30T21:22:26.043Z,7.78
2023-04-30T21:25:27.622Z,6.72
2023-04-30T21:28:29.192Z,9.20
2023-04-30T21:31:30.849Z,6.60
2023-04-30T21:34:32.790Z,6.43
2023-04-30T21:37:34.485Z,6.68
2023-04-30T21:40:36.085Z,5.88
2023-04-30T21:43:37.747Z,10.77
2023-04-30T21:46:42.224Z,5.80
2023-04-30T21:49:44.115Z,8.32
2023-04-30T21:52:45.751Z,6.18
2023-04-30T21:55:49.562Z,7.68
2023-04-30T21:58:51.439Z,8.73
2023-04-30T22:01:53.428Z,8.20
2023-04-30T22:04:55.488Z,8.02
2023-04-30T22:07:57.114Z,7.75
2023-04-30T22:10:59.753Z,8.07
2023-04-30T22:14:04.229Z,8.15
2023-04-30T22:17:06.052Z,5.78
2023-04-30T22:20:10.382Z,6.93
2023-04-30T22:23:12.407Z,6.85
2023-04-30T22:26:14.000Z,7.55
2023-04-30T22:29:15.681Z,5.75
2023-04-30T22:32:19.314Z,9.85
2023-04-30T22:35:21.042Z,10.35
2023-04-30T22:38:22.695Z,6.75
2023-04-30T22:41:24.584Z,5.18
2023-04-30T22:44:26.502Z,5.68
2023-04-30T22:47:28.147Z,10.63
2023-04-30T22:50:31.083Z,5.38
2023-04-30T22:53:33.648Z,5.68
2023-04-30T22:56:35.653Z,6.80
2023-04-30T22:59:37.602Z,7.30
2023-04-30T23:02:39.383Z,6.30
2023-04-30T23:05:41.072Z,3.47
2023-04-30T23:08:42.643Z,5.70
2023-04-30T23:11:45.009Z,5.57
2023-04-30T23:14:46.640Z,6.68
2023-04-30T23:17:48.325Z,8.48
2023-04-30T23:20:49.966Z,4.38
2023-04-30T23:23:51.553Z,6.18
2023-04-30T23:26:53.268Z,5.30
2023-04-30T23:29:56.421Z,8.65
2023-04-30T23:32:58.312Z,9.30
2023-04-30T23:35:59.892Z,5.28
2023-04-30T23:39:01.508Z,5.30
2023-04-30T23:42:03.359Z,4.50
2023-04-30T23:45:05.897Z,4.85
2023-04-30T23:48:07.762Z,6.15
2023-04-30T23:51:09.583Z,6.03
2023-04-30T23:54:12.064Z,3.67
2023-04-30T23:57:13.645Z,4.85
